Kapalua Airport Lahaina US
ICAO: PHJH
IATA:
Category: Medium
Scheduled Services:

Elevation: 256 ft
TransAlt. 0 ft.

Airport Communications:
AWOS:118.525
MAUI RDO:123.6
CTAF/UNICOM:122.7

PHJH Zoom In..

If you have problems with the map follow the link
https://www.worldairports.se/pages/airport.php?
ICAO=PHJH

Runways:

(A) RW 02 length 3000 ft width 100 ft
---- / hdg 17

(B) RW 20 length 3000 ft width 100 ft
---- / hdg 197

Location; PHJH
Day. 13 / Time. 20.50 Zulu
* Altimeter: 30.05
* Temperature: 28° c. 82.4°f.
* Wind from: 060° Speed 12 kn.
Dewpoint: 19° c.
Visibility: 15 Statute Miles.
Clouds: Few 2500 ft.
Clouds: Few 4000 ft.
Clouds: Scattered 6000 ft.

PHJH 132050Z 06012KT 15SM FEW025 FEW040 SCT060 28/19 A3005


Wind From 060°
Speed 12 kn.

 
 
jpsmedia worldairports.se 2019   terms of use